Time;durP1;ratioP1;P1;durP2;ratioP2;P2;SDS_P1;SDS_P2;PMS_P1;PMS_P2;Temp;Humidity;BMP_temperature;BMP_pressure;BME280_temperature;BME280_humidity;BME280_pressure;Samples;Min_cycle;Max_cycle;Signal;HPM_P1;HPM_P2
2023/10/22 00:02:08;;;;;;;5.03;1.98;;;;;;;;;;4869434;29;20040;-80
2023/10/22 00:04:34;;;;;;;8.32;1.70;;;;;;;;;;4883642;29;20040;-80
2023/10/22 00:07:00;;;;;;;5.10;1.38;;;;;;;;;;4899368;29;20044;-80
2023/10/22 00:09:26;;;;;;;7.78;1.23;;;;;;;;;;4882260;29;20445;-80
2023/10/22 00:11:52;;;;;;;7.97;1.83;;;;;;;;;;4899506;29;20083;-80
2023/10/22 00:14:18;;;;;;;8.18;1.80;;;;;;;;;;4884299;29;20044;-80
2023/10/22 00:16:44;;;;;;;6.50;1.60;;;;;;;;;;4883856;29;20048;-80
2023/10/22 00:19:10;;;;;;;3.97;1.38;;;;;;;;;;4884414;29;20039;-80
2023/10/22 00:21:36;;;;;;;3.75;1.45;;;;;;;;;;4899915;29;20073;-80
2023/10/22 00:24:02;;;;;;;4.03;1.50;;;;;;;;;;4884425;29;20044;-80
2023/10/22 00:26:28;;;;;;;4.38;1.20;;;;;;;;;;4883992;29;20050;-80
2023/10/22 00:28:54;;;;;;;4.20;1.35;;;;;;;;;;4883869;29;20489;-80
2023/10/22 00:31:20;;;;;;;3.63;1.05;;;;;;;;;;4899529;29;20043;-80
2023/10/22 00:33:46;;;;;;;3.30;1.02;;;;;;;;;;4901147;29;20040;-80
2023/10/22 00:36:12;;;;;;;6.03;1.20;;;;;;;;;;4909527;29;20058;-79
2023/10/22 00:38:38;;;;;;;4.93;1.30;;;;;;;;;;4904697;29;20047;-79
2023/10/22 00:41:05;;;;;;;4.32;1.50;;;;;;;;;;4904321;29;20040;-80
2023/10/22 00:43:31;;;;;;;5.15;1.50;;;;;;;;;;4904195;29;20175;-80
2023/10/22 00:45:57;;;;;;;5.70;1.40;;;;;;;;;;4893490;29;20059;-80
2023/10/22 00:48:25;;;;;;;8.35;1.40;;;12.50;99.90;;;;;;4902145;29;20146;-80
2023/10/22 00:50:52;;;;;;;5.38;1.30;;;;;;;;;;4917627;29;20052;-80
2023/10/22 00:53:18;;;;;;;4.82;1.48;;;;;;;;;;4918835;29;20511;-80
2023/10/22 00:55:45;;;;;;;7.38;1.63;;;12.50;99.90;;;;;;4918036;29;20138;-80
2023/10/22 00:58:20;;;;;;;4.85;1.15;;;12.60;99.90;;;;;;4915727;29;20051;-80
2023/10/22 01:00:46;;;;;;;4.80;1.60;;;;;;;;;;4917947;29;20039;-80
2023/10/22 01:03:12;;;;;;;6.15;1.42;;;;;;;;;;4902260;29;20094;-80
2023/10/22 01:05:38;;;;;;;3.50;1.10;;;;;;;;;;4902195;29;20098;-80
2023/10/22 01:08:08;;;;;;;4.20;1.40;;;;;;;;;;4892381;29;20043;-80
2023/10/22 01:10:34;;;;;;;7.40;1.30;;;;;;;;;;4917717;29;20046;-80
2023/10/22 01:13:01;;;;;;;3.28;1.25;;;;;;;;;;4918031;29;20079;-80
2023/10/22 01:15:27;;;;;;;5.20;1.10;;;;;;;;;;4917475;29;20050;-80
2023/10/22 01:17:54;;;;;;;5.30;1.00;;;;;;;;;;4901924;29;20110;-80
2023/10/22 01:20:20;;;;;;;4.80;1.25;;;;;;;;;;4916475;29;20043;-79
2023/10/22 01:22:46;;;;;;;3.53;1.20;;;;;;;;;;4918070;29;20070;-79
2023/10/22 01:25:12;;;;;;;4.65;1.65;;;;;;;;;;4885194;29;20040;-79
2023/10/22 01:27:39;;;;;;;3.05;1.25;;;;;;;;;;4900848;29;20035;-80
2023/10/22 01:30:05;;;;;;;4.40;1.10;;;;;;;;;;4901762;29;20043;-80
2023/10/22 01:32:31;;;;;;;3.05;1.40;;;;;;;;;;4917630;29;20106;-79
2023/10/22 01:35:01;;;;;;;4.85;1.10;;;;;;;;;;4901873;29;20039;-80
2023/10/22 01:37:27;;;;;;;2.75;1.13;;;;;;;;;;4916966;29;20062;-80
2023/10/22 01:39:54;;;;;;;4.93;1.40;;;;;;;;;;4902062;29;20491;-79
2023/10/22 01:42:20;;;;;;;5.32;1.00;;;;;;;;;;4872698;29;20060;-80
2023/10/22 01:44:46;;;;;;;2.38;1.73;;;;;;;;;;4901259;29;20039;-80
2023/10/22 01:47:12;;;;;;;4.45;1.40;;;;;;;;;;4917329;29;20032;-80
2023/10/22 01:49:39;;;;;;;3.83;1.20;;;;;;;;;;4895463;29;20353;-80
2023/10/22 01:52:05;;;;;;;3.20;1.30;;;;;;;;;;4919559;29;20138;-80
2023/10/22 01:54:31;;;;;;;4.18;1.25;;;;;;;;;;4902268;29;20042;-80
2023/10/22 01:56:57;;;;;;;3.72;1.30;;;;;;;;;;4901136;29;20047;-80
2023/10/22 01:59:23;;;;;;;2.33;1.23;;;;;;;;;;4879099;29;20096;-81
2023/10/22 02:01:49;;;;;;;2.45;1.10;;;;;;;;;;4917474;29;20126;-80
2023/10/22 02:04:15;;;;;;;2.45;1.10;;;;;;;;;;4917347;29;20039;-80
2023/10/22 02:06:42;;;;;;;2.75;1.30;;;;;;;;;;4893621;29;20071;-80
2023/10/22 02:09:09;;;;;;;7.57;2.10;;;;;;;;;;4885699;29;20515;-80
2023/10/22 02:11:35;;;;;;;3.60;1.90;;;;;;;;;;4900389;29;20055;-80
2023/10/22 02:14:01;;;;;;;2.45;1.50;;;;;;;;;;4901495;29;20050;-80
2023/10/22 02:16:27;;;;;;;3.03;1.25;;;;;;;;;;4918955;29;20036;-79
2023/10/22 02:18:53;;;;;;;5.55;1.65;;;;;;;;;;4921123;29;20035;-80
2023/10/22 02:21:23;;;;;;;2.35;1.10;;;;;;;;;;4920846;29;20472;-80
2023/10/22 02:23:49;;;;;;;1.80;1.30;;;;;;;;;;4889581;29;20044;-80
2023/10/22 02:26:15;;;;;;;4.80;1.40;;;;;;;;;;4918469;29;20074;-80
2023/10/22 02:28:41;;;;;;;2.08;1.20;;;;;;;;;;4903263;29;20040;-79
2023/10/22 02:31:07;;;;;;;4.15;1.20;;;;;;;;;;4903579;29;20040;-80
2023/10/22 02:33:33;;;;;;;2.65;1.10;;;;;;;;;;4920272;29;20381;-80
2023/10/22 02:35:59;;;;;;;4.85;1.27;;;;;;;;;;4876669;29;20135;-80
2023/10/22 02:38:25;;;;;;;2.35;1.45;;;;;;;;;;4920353;29;20050;-80
2023/10/22 02:40:52;;;;;;;2.45;1.40;;;;;;;;;;4904254;29;20044;-80
2023/10/22 02:43:18;;;;;;;2.97;1.45;;;;;;;;;;4920317;29;20051;-79
2023/10/22 02:45:55;;;;;;;2.25;1.50;;;12.10;99.90;;;;;;4917846;29;20035;-79
2023/10/22 02:48:21;;;;;;;2.70;1.35;;;;;;;;;;4920497;29;20134;-79
2023/10/22 02:50:47;;;;;;;3.25;1.60;;;;;;;;;;4896669;29;20046;-80
2023/10/22 02:53:13;;;;;;;2.92;1.48;;;;;;;;;;4920187;29;20044;-80
2023/10/22 02:55:40;;;;;;;5.28;1.50;;;;;;;;;;4904320;29;20036;-79
2023/10/22 02:58:06;;;;;;;2.05;1.20;;;;;;;;;;4920051;29;20048;-80
2023/10/22 03:00:35;;;;;;;2.80;1.80;;;;;;;;;;4920257;29;20110;-80
2023/10/22 03:03:02;;;;;;;5.93;2.20;;;;;;;;;;4904357;29;20075;-80
2023/10/22 03:05:32;;;;;;;3.70;1.50;;;12.00;99.90;;;;;;4920124;29;20047;-80
2023/10/22 03:07:58;;;;;;;3.97;1.67;;;;;;;;;;4918005;29;20046;-79
2023/10/22 03:10:24;;;;;;;2.13;1.45;;;;;;;;;;4904343;29;20040;-82
2023/10/22 03:12:50;;;;;;;3.67;1.55;;;;;;;;;;4905068;29;20122;-79
2023/10/22 03:15:16;;;;;;;5.53;1.55;;;;;;;;;;4920752;29;20035;-79
2023/10/22 03:17:42;;;;;;;4.75;1.50;;;;;;;;;;4904559;29;20036;-79
2023/10/22 03:20:09;;;;;;;4.95;1.73;;;;;;;;;;4920147;29;20070;-79
2023/10/22 03:22:35;;;;;;;1.48;1.27;;;;;;;;;;4920466;29;20045;-79
2023/10/22 03:25:01;;;;;;;2.22;1.60;;;;;;;;;;4906148;29;20040;-79
2023/10/22 03:27:27;;;;;;;1.95;1.27;;;;;;;;;;4905892;29;20071;-79
2023/10/22 03:29:53;;;;;;;4.43;1.80;;;;;;;;;;4904744;29;20040;-80
2023/10/22 03:32:19;;;;;;;3.97;1.60;;;;;;;;;;4894584;29;20036;-79
2023/10/22 03:34:45;;;;;;;3.38;1.48;;;;;;;;;;4891020;29;20058;-79
2023/10/22 03:37:12;;;;;;;3.13;1.50;;;;;;;;;;4922653;29;20047;-79
2023/10/22 03:39:38;;;;;;;2.20;1.63;;;;;;;;;;4905369;29;20042;-79
2023/10/22 03:42:04;;;;;;;2.78;1.50;;;;;;;;;;4920342;29;20069;-80
2023/10/22 03:44:30;;;;;;;3.08;2.13;;;;;;;;;;4920114;29;20043;-80
2023/10/22 03:46:56;;;;;;;1.90;1.60;;;;;;;;;;4920086;29;20047;-80
2023/10/22 03:49:22;;;;;;;3.10;1.85;;;;;;;;;;4920535;29;20119;-80
2023/10/22 03:51:48;;;;;;;3.30;1.67;;;;;;;;;;4904571;29;20040;-79
2023/10/22 03:54:14;;;;;;;4.15;1.83;;;;;;;;;;4919091;29;20062;-80
2023/10/22 03:56:40;;;;;;;5.40;2.38;;;;;;;;;;4918568;29;20096;-79
2023/10/22 03:59:06;;;;;;;2.47;1.85;;;;;;;;;;4918777;29;20039;-79
2023/10/22 04:01:32;;;;;;;3.10;1.85;;;;;;;;;;4886586;29;20103;-79
2023/10/22 04:03:58;;;;;;;3.55;1.95;;;;;;;;;;4918907;29;20459;-79
2023/10/22 04:06:25;;;;;;;2.25;1.92;;;;;;;;;;4902919;29;20388;-79
2023/10/22 04:08:57;;;;;;;3.13;1.90;;;;;;;;;;4918771;29;20042;-79
2023/10/22 04:11:23;;;;;;;3.22;2.00;;;;;;;;;;4893564;29;20040;-79
2023/10/22 04:13:49;;;;;;;2.78;2.10;;;;;;;;;;4918273;29;20400;-79
2023/10/22 04:16:15;;;;;;;3.35;2.08;;;11.90;99.90;;;;;;4903033;29;20036;-79
2023/10/22 04:18:41;;;;;;;3.33;2.08;;;;;;;;;;4918312;29;20036;-79
2023/10/22 04:21:14;;;;;;;4.10;2.30;;;;;;;;;;4902417;29;20127;-79
2023/10/22 04:23:40;;;;;;;3.35;2.35;;;;;;;;;;4918301;29;20118;-79
2023/10/22 04:26:13;;;;;;;3.03;2.28;;;;;;;;;;4918473;29;20043;-79
2023/10/22 04:28:42;;;;;;;3.63;2.50;;;;;;;;;;4918510;29;20095;-80
2023/10/22 04:31:11;;;;;;;6.30;3.15;;;;;;;;;;4902493;29;20051;-79
2023/10/22 04:33:38;;;;;;;4.93;2.75;;;;;;;;;;4918236;29;20488;-78
2023/10/22 04:36:04;;;;;;;3.85;3.20;;;;;;;;;;4902454;29;20508;-79
2023/10/22 04:38:31;;;;;;;5.03;3.70;;;;;;;;;;4902162;29;20119;-79
2023/10/22 04:40:57;;;;;;;7.07;3.63;;;;;;;;;;4886645;29;20047;-80
2023/10/22 04:43:23;;;;;;;5.15;3.60;;;;;;;;;;4902248;29;20031;-80
2023/10/22 04:45:50;;;;;;;6.03;4.13;;;;;;;;;;4917977;29;20837;-80
2023/10/22 04:48:16;;;;;;;5.78;4.38;;;;;;;;;;4918186;29;20059;-79
2023/10/22 04:50:44;;;;;;;7.43;4.78;;;;;;;;;;4887650;29;20377;-80
2023/10/22 04:53:10;;;;;;;7.50;4.55;;;;;;;;;;4917774;29;20535;-79
2023/10/22 04:55:36;;;;;;;7.00;4.68;;;;;;;;;;4917725;29;20115;-80
2023/10/22 04:58:03;;;;;;;12.38;5.90;;;;;;;;;;4917949;29;20146;-79
2023/10/22 05:00:29;;;;;;;8.35;5.70;;;;;;;;;;4917509;29;20114;-80
2023/10/22 05:02:55;;;;;;;7.30;6.00;;;;;;;;;;4917342;29;20126;-79
2023/10/22 05:05:21;;;;;;;9.35;6.97;;;;;;;;;;4917755;29;20036;-80
2023/10/22 05:07:49;;;;;;;9.88;7.53;;;12.50;99.90;;;;;;4917762;29;20047;-80
2023/10/22 05:10:16;;;;;;;9.30;6.78;;;;;;;;;;4886148;29;20043;-81
2023/10/22 05:12:42;;;;;;;7.72;6.68;;;;;;;;;;4902292;29;20040;-81
2023/10/22 05:15:08;;;;;;;9.23;6.40;;;;;;;;;;4901822;29;20119;-81
2023/10/22 05:17:34;;;;;;;6.60;5.90;;;;;;;;;;4917376;29;20114;-80
2023/10/22 05:20:00;;;;;;;8.73;6.75;;;;;;;;;;4886110;29;20039;-81
2023/10/22 05:22:26;;;;;;;5.95;4.50;;;;;;;;;;4901984;29;20040;-80
2023/10/22 05:24:52;;;;;;;3.47;2.58;;;;;;;;;;4901848;29;20122;-80
2023/10/22 05:27:19;;;;;;;4.72;1.83;;;;;;;;;;4901703;29;20563;-81
2023/10/22 05:29:48;;;;;;;5.30;1.70;;;;;;;;;;4917433;29;20523;-81
2023/10/22 05:32:17;;;;;;;3.28;1.35;;;;;;;;;;4906314;29;20462;-80
2023/10/22 05:34:44;;;;;;;6.15;1.50;;;;;;;;;;4906549;29;20413;-80
2023/10/22 05:37:10;;;;;;;2.75;1.15;;;;;;;;;;4901558;29;20112;-81
2023/10/22 05:39:36;;;;;;;4.03;1.17;;;;;;;;;;4901632;29;20047;-79
2023/10/22 05:42:04;;;;;;;7.85;1.50;;;;;;;;;;4902123;29;20035;-80
2023/10/22 05:44:30;;;;;;;7.80;1.40;;;;;;;;;;4901763;29;20074;-79
2023/10/22 05:46:56;;;;;;;4.60;1.50;;;;;;;;;;4917447;29;20042;-80
2023/10/22 05:49:23;;;;;;;9.07;1.90;;;;;;;;;;4917449;29;20044;-79
2023/10/22 05:51:50;;;;;;;6.40;1.77;;;;;;;;;;4919456;29;20078;-79
2023/10/22 05:54:17;;;;;;;6.60;1.98;;;;;;;;;;4921282;29;20106;-80
2023/10/22 05:56:43;;;;;;;11.75;2.20;;;;;;;;;;4905307;29;20071;-80
2023/10/22 05:59:10;;;;;;;10.18;3.42;;;;;;;;;;4921356;29;20039;-80
2023/10/22 06:01:41;;;;;;;8.88;2.53;;;;;;;;;;4905340;29;20051;-80
2023/10/22 06:04:07;;;;;;;8.63;2.28;;;;;;;;;;4921449;29;20036;-80
2023/10/22 06:06:33;;;;;;;10.65;1.70;;;;;;;;;;4921143;29;20035;-80
2023/10/22 06:08:59;;;;;;;10.60;2.30;;;;;;;;;;4896417;29;20171;-81
2023/10/22 06:11:25;;;;;;;15.60;2.53;;;;;;;;;;4920769;29;20325;-81
2023/10/22 06:13:52;;;;;;;6.53;2.00;;;;;;;;;;4921068;29;20047;-81
2023/10/22 06:16:18;;;;;;;12.38;2.28;;;;;;;;;;4905079;29;20042;-81
2023/10/22 06:18:44;;;;;;;6.55;2.08;;;;;;;;;;4894868;29;20489;-81
2023/10/22 06:21:13;;;;;;;8.50;2.10;;;;;;;;;;4921602;29;20068;-82
2023/10/22 06:23:40;;;;;;;6.32;1.92;;;;;;;;;;4905286;29;20142;-81
2023/10/22 06:26:08;;;;;;;3.25;1.60;;;;;;;;;;4911868;29;20071;-81
2023/10/22 06:28:34;;;;;;;3.95;1.30;;;;;;;;;;4927755;29;20046;-83
2023/10/22 06:31:04;;;;;;;5.18;1.45;;;;;;;;;;4919161;29;20484;-81
2023/10/22 06:33:30;;;;;;;4.88;1.55;;;;;;;;;;4921052;29;20523;-81
2023/10/22 06:35:57;;;;;;;5.35;1.60;;;;;;;;;;4905070;29;20067;-80
2023/10/22 06:38:23;;;;;;;4.20;1.50;;;;;;;;;;4904927;29;20459;-82
2023/10/22 06:40:49;;;;;;;2.67;1.30;;;11.60;99.90;;;;;;4904998;29;20119;-81
2023/10/22 06:43:16;;;;;;;8.43;1.80;;;;;;;;;;4903999;29;20071;-81
2023/10/22 06:45:42;;;;;;;6.13;1.60;;;;;;;;;;4888855;29;20095;-81
2023/10/22 06:48:08;;;;;;;5.60;1.73;;;;;;;;;;4904780;29;20118;-82
2023/10/22 06:50:34;;;;;;;3.90;1.60;;;;;;;;;;4896611;29;20036;-81
2023/10/22 06:53:00;;;;;;;8.05;2.13;;;;;;;;;;4890036;29;20040;-82
2023/10/22 06:55:26;;;;;;;6.57;2.30;;;;;;;;;;4877852;29;20051;-79
2023/10/22 06:57:52;;;;;;;6.13;1.90;;;;;;;;;;4908413;29;20126;-81
2023/10/22 07:00:18;;;;;;;5.50;1.92;;;;;;;;;;4887743;29;20042;-81
2023/10/22 07:02:46;;;;;;;8.90;1.98;;;;;;;;;;4918900;29;20028;-81
2023/10/22 07:05:12;;;;;;;6.90;2.33;;;;;;;;;;4908501;29;20048;-81
2023/10/22 07:07:41;;;;;;;5.00;2.08;;;;;;;;;;4897601;29;20050;-81
2023/10/22 07:10:09;;;;;;;5.22;2.42;;;;;;;;;;4906053;29;20496;-74
2023/10/22 07:12:35;;;;;;;3.95;2.00;;;;;;;;;;4902477;29;20068;-80
2023/10/22 07:15:01;;;;;;;6.68;2.63;;;;;;;;;;4918717;29;20039;-82
2023/10/22 07:17:27;;;;;;;12.23;2.75;;;;;;;;;;4891283;29;20111;-81
2023/10/22 07:19:53;;;;;;;9.13;2.47;;;;;;;;;;4872792;29;20103;-82
2023/10/22 07:22:19;;;;;;;3.88;1.95;;;;;;;;;;4905277;29;20070;-82
2023/10/22 07:24:46;;;;;;;4.18;2.58;;;;;;;;;;4894758;29;20048;-82
2023/10/22 07:27:12;;;;;;;9.48;2.33;;;;;;;;;;4886939;29;20130;-82
2023/10/22 07:29:38;;;;;;;9.00;2.83;;;;;;;;;;4902072;29;20070;-82
2023/10/22 07:32:04;;;;;;;8.68;2.42;;;;;;;;;;4897826;29;20400;-82
2023/10/22 07:34:31;;;;;;;10.05;2.75;;;;;;;;;;4886294;29;20075;-82
2023/10/22 07:36:57;;;;;;;11.35;2.40;;;;;;;;;;4886369;29;20112;-82
2023/10/22 07:39:24;;;;;;;6.53;2.67;;;;;;;;;;4902134;29;20490;-82
2023/10/22 07:41:50;;;;;;;7.45;2.45;;;;;;;;;;4886417;29;20131;-82
2023/10/22 07:44:16;;;;;;;6.97;2.15;;;;;;;;;;4901868;29;20067;-82
2023/10/22 07:46:42;;;;;;;7.43;1.95;;;;;;;;;;4902183;29;20048;-81
2023/10/22 07:49:09;;;;;;;10.13;2.20;;;;;;;;;;4882047;29;20122;-82
2023/10/22 07:51:35;;;;;;;6.82;1.90;;;;;;;;;;4894562;29;20047;-82
2023/10/22 07:54:01;;;;;;;9.85;2.03;;;;;;;;;;4905246;29;20062;-82
2023/10/22 07:56:27;;;;;;;15.88;2.38;;;;;;;;;;4902615;29;20043;-82
2023/10/22 07:58:53;;;;;;;9.43;2.35;;;;;;;;;;4903556;29;20039;-82
2023/10/22 08:01:21;;;;;;;7.28;2.40;;;;;;;;;;4918893;29;20123;-81
2023/10/22 08:03:49;;;;;;;8.63;3.08;;;;;;;;;;4904137;29;20118;-80
2023/10/22 08:06:15;;;;;;;12.20;2.58;;;;;;;;;;4903013;29;20035;-80
2023/10/22 08:08:41;;;;;;;7.50;2.28;;;;;;;;;;4902709;29;20043;-80
2023/10/22 08:11:07;;;;;;;8.85;2.80;;;;;;;;;;4902638;29;20111;-80
2023/10/22 08:13:34;;;;;;;4.53;2.30;;;;;;;;;;4901370;29;20078;-81
2023/10/22 08:16:04;;;;;;;9.30;2.47;;;12.10;99.90;;;;;;4903479;29;20044;-80
2023/10/22 08:18:30;;;;;;;9.13;1.83;;;;;;;;;;4908566;29;20087;-81
2023/10/22 08:21:01;;;;;;;5.55;1.55;;;;;;;;;;4926617;29;20127;-81
2023/10/22 08:23:27;;;;;;;5.65;1.48;;;;;;;;;;4922841;29;20047;-80
2023/10/22 08:25:57;;;;;;;8.63;1.80;;;;;;;;;;4925151;29;20101;-80
2023/10/22 08:28:23;;;;;;;4.43;1.45;;;;;;;;;;4911737;29;20043;-81
2023/10/22 08:30:50;;;;;;;5.20;1.27;;;;;;;;;;4927970;29;20044;-83
2023/10/22 08:33:16;;;;;;;5.00;2.10;;;;;;;;;;4927588;29;20040;-82
2023/10/22 08:35:47;;;;;;;4.85;1.17;;;;;;;;;;4924635;29;20056;-82
2023/10/22 08:38:15;;;;;;;10.57;2.60;;;;;;;;;;4903563;29;20050;-82
2023/10/22 08:40:42;;;;;;;3.67;1.60;;;;;;;;;;4908866;29;20404;-82
2023/10/22 08:43:16;;;;;;;9.15;1.73;;;;;;;;;;4912992;29;20035;-82
2023/10/22 08:45:45;;;;;;;7.10;1.42;;;;;;;;;;4912420;29;20044;-80
2023/10/22 08:48:12;;;;;;;3.92;1.25;;;;;;;;;;4921204;29;20043;-82
2023/10/22 08:50:39;;;;;;;6.70;1.15;;;;;;;;;;4923473;29;20039;-82
2023/10/22 08:53:05;;;;;;;7.15;1.35;;;;;;;;;;4922131;29;20047;-82
2023/10/22 08:55:31;;;;;;;11.15;1.50;;;;;;;;;;4906014;29;20075;-81
2023/10/22 08:58:00;;;;;;;4.75;1.40;;;;;;;;;;4923276;29;20034;-82
2023/10/22 09:00:27;;;;;;;3.70;1.33;;;;;;;;;;4922351;29;20044;-81
2023/10/22 09:02:54;;;;;;;8.02;1.30;;;;;;;;;;4921534;29;20048;-81
2023/10/22 09:05:20;;;;;;;4.53;1.02;;;;;;;;;;4926123;29;20051;-82
2023/10/22 09:07:53;;;;;;;4.18;1.20;;;;;;;;;;4926107;29;20140;-80
2023/10/22 09:10:25;;;;;;;4.00;1.63;;;;;;;;;;4906041;29;20036;-82
2023/10/22 09:12:51;;;;;;;;;;;;;;;;;;4920086;29;20396;-78
2023/10/22 09:15:17;;;;;;;5.68;1.00;;;;;;;;;;4905488;29;20482;-76
2023/10/22 09:17:43;;;;;;;5.72;1.10;;;;;;;;;;4882890;29;20048;-77
2023/10/22 09:20:37;;;;;;;3.38;1.13;;;;;;;;;;4901096;29;20039;-77
2023/10/22 09:23:15;;;;;;;4.57;1.75;;;;;;;;;;4914898;29;20056;-76
2023/10/22 09:25:41;;;;;;;3.22;1.23;;;;;;;;;;4901552;29;20108;-76
2023/10/22 09:28:14;;;;;;;9.00;2.15;;;;;;;;;;4918463;29;20082;-76
2023/10/22 09:30:41;;;;;;;4.40;1.33;;;;;;;;;;4887285;29;20491;-76
2023/10/22 09:33:08;;;;;;;6.90;1.58;;;12.90;99.90;;;;;;4902976;29;20051;-76
2023/10/22 09:35:35;;;;;;;5.75;1.67;;;;;;;;;;4902833;29;20388;-76
2023/10/22 09:38:01;;;;;;;4.25;1.60;;;;;;;;;;4917745;29;20126;-76
2023/10/22 09:40:28;;;;;;;3.78;1.50;;;;;;;;;;4909123;29;20039;-76
2023/10/22 09:42:54;;;;;;;6.63;1.20;;;;;;;;;;4917483;29;20361;-76
2023/10/22 09:45:23;;;;;;;4.85;1.55;;;13.10;99.90;;;;;;4915474;29;20511;-76
2023/10/22 09:47:54;;;;;;;5.70;1.63;;;13.00;99.90;;;;;;4918163;29;20040;-76
2023/10/22 09:50:22;;;;;;;6.47;1.85;;;13.10;99.90;;;;;;4917534;29;20044;-76
2023/10/22 09:52:51;;;;;;;6.07;1.58;;;;;;;;;;4917813;29;20032;-75
2023/10/22 09:55:17;;;;;;;2.75;1.30;;;;;;;;;;4917529;29;20087;-76
2023/10/22 09:57:46;;;;;;;5.10;1.38;;;;;;;;;;4887115;29;20040;-75
2023/10/22 10:00:13;;;;;;;6.28;1.40;;;13.40;99.90;;;;;;4924151;29;20047;-74
2023/10/22 10:02:42;;;;;;;7.45;1.58;;;13.50;99.90;;;;;;4919494;29;20543;-75
2023/10/22 10:05:11;;;;;;;3.72;1.38;;;;;;;;;;4915501;29;20052;-75
2023/10/22 10:07:39;;;;;;;4.72;1.67;;;13.60;99.90;;;;;;4920313;29;20035;-76
2023/10/22 10:10:06;;;;;;;3.90;1.00;;;;;;;;;;4922783;29;20047;-76
2023/10/22 10:12:34;;;;;;;6.35;1.20;;;;;;;;;;4902967;29;20046;-76
2023/10/22 10:15:00;;;;;;;4.72;1.10;;;;;;;;;;4902210;29;20153;-74
2023/10/22 10:17:26;;;;;;;9.50;3.78;;;;;;;;;;4918246;29;20059;-74
2023/10/22 10:19:52;;;;;;;4.95;1.98;;;;;;;;;;4918159;29;20035;-76
2023/10/22 10:22:40;;;;;;;5.32;1.30;;;13.60;99.90;;;;;;4914181;29;20098;-74
2023/10/22 10:25:31;;;;;;;4.60;1.10;;;13.70;99.90;;;;;;4923593;29;20126;-74
2023/10/22 10:28:01;;;;;;;3.60;1.15;;;;;;;;;;4918108;29;20040;-73
2023/10/22 10:30:27;;;;;;;4.47;1.25;;;;;;;;;;4902042;29;20040;-73
2023/10/22 10:32:54;;;;;;;6.28;1.48;;;;;;;;;;4917944;29;20044;-73
2023/10/22 10:35:20;;;;;;;6.40;1.90;;;;;;;;;;4917441;29;20131;-74
2023/10/22 10:38:05;;;;;;;5.05;1.50;;;;;;;;;;4903986;29;20059;-75
2023/10/22 10:40:46;;;;;;;2.13;1.02;;;14.10;99.90;;;;;;4920982;29;20449;-76
2023/10/22 10:43:12;;;;;;;3.70;1.25;;;;;;;;;;4927991;29;20044;-77
2023/10/22 10:45:43;;;;;;;4.15;1.35;;;;;;;;;;4904907;29;20046;-76
2023/10/22 10:48:49;;;;;;;3.08;1.40;;;14.20;99.90;;;;;;4902318;29;20048;-74
2023/10/22 10:51:19;;;;;;;2.33;1.20;;;;;;;;;;4920788;29;20055;-77
2023/10/22 10:54:03;;;;;;;2.55;1.17;;;13.90;99.90;;;;;;4905786;29;20048;-74
2023/10/22 10:56:49;;;;;;;2.95;1.20;;;14.10;99.90;;;;;;4900859;29;20048;-74
2023/10/22 10:59:44;;;;;;;3.92;1.17;;;;;;;;;;4915392;29;20047;-74
2023/10/22 11:02:12;;;;;;;13.93;2.65;;;;;;;;;;4889615;29;20052;-74
2023/10/22 11:04:39;;;;;;;3.00;1.20;;;;;;;;;;4920805;29;20105;-74
2023/10/22 11:07:06;;;;;;;4.03;1.10;;;;;;;;;;4905161;29;20048;-74
2023/10/22 11:09:35;;;;;;;2.88;1.10;;;13.90;99.90;;;;;;4920706;29;20051;-74
2023/10/22 11:12:07;;;;;;;3.53;1.00;;;13.80;99.90;;;;;;4921008;29;20078;-74
2023/10/22 11:14:38;;;;;;;3.47;1.00;;;;;;;;;;4920320;29;20040;-74
2023/10/22 11:17:04;;;;;;;1.67;0.80;;;;;;;;;;4906165;29;20036;-73
2023/10/22 11:19:32;;;;;;;1.55;0.90;;;13.80;99.90;;;;;;4890168;29;20515;-74
2023/10/22 11:21:58;;;;;;;2.08;1.10;;;;;;;;;;4889539;29;20075;-79
2023/10/22 11:24:32;;;;;;;1.75;0.80;;;;;;;;;;4920794;29;20572;-78
2023/10/22 11:26:59;;;;;;;4.22;0.80;;;;;;;;;;4906101;29;20115;-79
2023/10/22 11:29:25;;;;;;;2.72;1.15;;;;;;;;;;4920770;29;20352;-79
2023/10/22 11:31:57;;;;;;;2.28;1.13;;;13.80;99.90;;;;;;4905247;29;20091;-79
2023/10/22 11:34:23;;;;;;;2.90;0.83;;;;;;;;;;4919859;29;20046;-80
2023/10/22 11:36:57;;;;;;;2.55;0.90;;;14.00;99.90;;;;;;4922896;29;20258;-80
2023/10/22 11:39:23;;;;;;;2.05;0.80;;;;;;;;;;4922769;29;20472;-81
2023/10/22 11:42:00;;;;;;;3.65;1.33;;;14.50;99.90;;;;;;4920305;29;20115;-79
2023/10/22 11:44:33;;;;;;;1.38;0.93;;;;;;;;;;4904251;29;20043;-80
2023/10/22 11:47:00;;;;;;;1.85;0.95;;;;;;;;;;4896237;29;20043;-81
2023/10/22 11:49:27;;;;;;;1.75;1.00;;;;;;;;;;4898692;29;20046;-81
2023/10/22 11:51:53;;;;;;;6.28;0.90;;;;;;;;;;4921171;29;20085;-81
2023/10/22 11:54:20;;;;;;;1.25;0.73;;;;;;;;;;4910697;29;20519;-81
2023/10/22 11:56:47;;;;;;;3.40;1.10;;;;;;;;;;4927519;29;20040;-80
2023/10/22 11:59:13;;;;;;;3.15;1.23;;;;;;;;;;4919513;29;20043;-81
2023/10/22 12:01:40;;;;;;;2.85;1.30;;;;;;;;;;4906176;29;20082;-80
2023/10/22 12:04:06;;;;;;;4.32;1.13;;;;;;;;;;4910499;29;20106;-81
2023/10/22 12:06:32;;;;;;;7.30;1.15;;;;;;;;;;4928818;29;20043;-81
2023/10/22 12:08:59;;;;;;;2.40;0.95;;;;;;;;;;4896627;29;20043;-81
2023/10/22 12:11:25;;;;;;;2.30;1.15;;;;;;;;;;4904407;29;20098;-81
2023/10/22 12:13:51;;;;;;;2.63;0.82;;;;;;;;;;4912257;29;20154;-81
2023/10/22 12:16:18;;;;;;;2.22;1.27;;;;;;;;;;4903390;29;20103;-80
2023/10/22 12:18:44;;;;;;;3.63;0.90;;;;;;;;;;4921962;29;20046;-81
2023/10/22 12:21:10;;;;;;;4.28;1.20;;;;;;;;;;4905649;29;20050;-80
2023/10/22 12:23:36;;;;;;;2.47;0.93;;;;;;;;;;4897577;29;20042;-80
2023/10/22 12:26:08;;;;;;;3.88;1.00;;;14.90;99.90;;;;;;4919202;29;20104;-81
2023/10/22 12:28:34;;;;;;;5.68;1.02;;;;;;;;;;4924761;29;20036;-80
2023/10/22 12:31:00;;;;;;;2.50;0.93;;;;;;;;;;4924510;29;20047;-81
2023/10/22 12:33:26;;;;;;;3.80;0.80;;;;;;;;;;4911399;29;20050;-81
2023/10/22 12:35:53;;;;;;;1.70;0.77;;;;;;;;;;4909018;29;20520;-81
2023/10/22 12:38:19;;;;;;;2.42;0.85;;;;;;;;;;4922666;29;20047;-81
2023/10/22 12:40:48;;;;;;;4.78;1.10;;;;;;;;;;4889961;29;20042;-81
2023/10/22 12:43:14;;;;;;;3.03;1.10;;;;;;;;;;4921810;29;20055;-79
2023/10/22 12:45:41;;;;;;;3.78;1.13;;;;;;;;;;4903862;29;20049;-83
2023/10/22 12:48:07;;;;;;;7.55;1.00;;;;;;;;;;4913605;29;20047;-82
2023/10/22 12:50:33;;;;;;;2.90;0.88;;;;;;;;;;4892589;29;20050;-84
2023/10/22 12:52:59;;;;;;;2.75;1.10;;;;;;;;;;4903872;29;20094;-82
2023/10/22 12:55:27;;;;;;;1.58;0.85;;;;;;;;;;4886965;29;20078;-82
2023/10/22 12:57:53;;;;;;;1.70;0.80;;;;;;;;;;4919657;29;20079;-83
2023/10/22 13:00:19;;;;;;;2.00;1.17;;;;;;;;;;4918911;29;20036;-83
2023/10/22 13:02:46;;;;;;;2.78;1.00;;;;;;;;;;4901467;29;20043;-82
2023/10/22 13:05:12;;;;;;;2.97;0.73;;;;;;;;;;4904290;29;20868;-78
2023/10/22 13:07:38;;;;;;;4.47;1.00;;;;;;;;;;4901278;29;20080;-76
2023/10/22 13:10:05;;;;;;;2.42;1.00;;;;;;;;;;4914851;29;20051;-77
2023/10/22 13:12:31;;;;;;;2.40;0.90;;;;;;;;;;4894964;29;20154;-77
2023/10/22 13:14:57;;;;;;;1.27;0.70;;;;;;;;;;4898352;29;20039;-77
2023/10/22 13:17:24;;;;;;;2.30;1.05;;;;;;;;;;4919460;29;20071;-77
2023/10/22 13:19:50;;;;;;;1.77;0.90;;;;;;;;;;4903420;29;20428;-77
2023/10/22 13:22:17;;;;;;;3.30;0.98;;;;;;;;;;4912668;29;20479;-77
2023/10/22 13:24:43;;;;;;;3.85;1.10;;;;;;;;;;4918779;29;20047;-77
2023/10/22 13:27:09;;;;;;;2.30;1.10;;;;;;;;;;4918966;29;20560;-78
2023/10/22 13:29:35;;;;;;;1.58;0.90;;;;;;;;;;4903113;29;20103;-77
2023/10/22 13:32:01;;;;;;;3.17;1.15;;;;;;;;;;4901563;29;20044;-77
2023/10/22 13:34:28;;;;;;;2.35;1.10;;;;;;;;;;4902443;29;20040;-77
2023/10/22 13:36:54;;;;;;;2.22;1.20;;;;;;;;;;4902125;29;20087;-78
2023/10/22 13:39:20;;;;;;;4.45;1.63;;;;;;;;;;4886858;29;20078;-78
2023/10/22 13:41:46;;;;;;;3.83;1.80;;;;;;;;;;4877684;29;20052;-78
2023/10/22 13:44:14;;;;;;;2.78;1.20;;;;;;;;;;4917262;29;20043;-77
2023/10/22 13:46:40;;;;;;;4.05;1.42;;;;;;;;;;4919355;29;20046;-77
2023/10/22 13:49:06;;;;;;;3.72;1.42;;;;;;;;;;4920959;29;20043;-78
2023/10/22 13:51:32;;;;;;;5.15;1.10;;;;;;;;;;4880748;29;20044;-79
2023/10/22 13:53:58;;;;;;;5.13;1.35;;;;;;;;;;4887065;29;20046;-77
2023/10/22 13:56:24;;;;;;;3.22;1.20;;;;;;;;;;4904609;29;20097;-78
2023/10/22 13:58:50;;;;;;;3.78;1.10;;;;;;;;;;4900188;29;20046;-79
2023/10/22 14:01:17;;;;;;;6.07;1.10;;;;;;;;;;4915877;29;20039;-78
2023/10/22 14:03:43;;;;;;;4.05;1.80;;;;;;;;;;4883703;29;20043;-79
2023/10/22 14:06:09;;;;;;;3.08;1.17;;;;;;;;;;4915492;29;20043;-79
2023/10/22 14:08:35;;;;;;;3.42;1.10;;;;;;;;;;4891783;29;20130;-79
2023/10/22 14:11:01;;;;;;;4.15;1.60;;;;;;;;;;4902453;29;20043;-79
2023/10/22 14:13:27;;;;;;;5.85;1.58;;;;;;;;;;4905246;29;20088;-80
2023/10/22 14:16:04;;;;;;;2.63;1.40;;;;;;;;;;4890568;29;20480;-79
2023/10/22 14:18:30;;;;;;;3.63;1.50;;;;;;;;;;4919311;29;20063;-80
2023/10/22 14:20:56;;;;;;;5.50;1.58;;;;;;;;;;4890493;29;20095;-79
2023/10/22 14:23:22;;;;;;;5.07;1.50;;;;;;;;;;4891326;29;20103;-80
2023/10/22 14:25:57;;;;;;;4.65;1.50;;;;;;;;;;4903080;29;20048;-80
2023/10/22 14:28:24;;;;;;;4.20;1.58;;;;;;;;;;4904246;29;20048;-79
2023/10/22 14:30:50;;;;;;;3.05;1.30;;;;;;;;;;4906942;29;20047;-79
2023/10/22 14:33:16;;;;;;;2.55;1.00;;;;;;;;;;4923621;29;20404;-79